Airfield :
LOGIN :

Register | Disclaimer

   EN    FR    IT 

 










Legend :    VFR   Marginal VFR   IFR   Intensive IFR   Very Intensive IFR
Visi :
Ceiling :
>= 8 km
>= 3000ft
5 to 8 km
1000 to 3000 ft
1500m to 5 km
500 to 1000 ft
800 to 1500m
200 to 500 ft
< 800m
< 200 ft
Symbols :   Thunderstorms  Fog  Heavy snow  Heavy precipitations  Wind > 20 kt
SIGMETs :     Misc.  Thunderstorms  Icing  Turbulence  Mountain Waves  Volcanic Ashes







- Airport Elevation : 144 ft
- IATA code : PGF
- Download approach charts


LFMP - Perpignan

CURRENT METAR :
  • 260030Z AUTO 00000KT CAVOK 21/14 Q1016

EXPIRED METARs :
  • 260000Z AUTO VRB02KT CAVOK 22/14 Q1016
  • 252330Z AUTO 26004KT CAVOK 22/14 Q1016
  • 252300Z AUTO 24006KT CAVOK 23/14 Q1016
  • 252230Z AUTO 25005KT CAVOK 22/14 Q1016
  • 252200Z AUTO 24006KT CAVOK 23/14 Q1016
  • 252130Z AUTO 26004KT CAVOK 23/16 Q1016 NOSIG

TAF TAF LFMP
Valid from the 25 at 15:00 until the 26 at 15:00 UTC


251400Z 2515/2615 14008KT CAVOK
BECMG 2518/2520 VRB02KT
BECMG 2600/2602 3000 BR OVC003
PROB30
TEMPO 2602/2605 1200 BCFG
BECMG 2606/2608 4500 BR BKN008
BECMG 2608/2610 08012KT CAVOK
ATIS : +33 4 68 63 75 12
No reported NOTAMs for that airfield.



MET'MAP, your aeronautical weather chart ! - Copyright ORBIFLY December 2007 - Disclaimer

ORBIFLY MET'MAP TEAM :

Programming & Development : Alexandra Zaïnal
Concept & Development : Baudouin d'Aumeries
Co-Development & Prog : Marc-Olivier Méhu
Technical & hardware support : Manuel Goepfert

Contact : metmap@orbifly.com




SOURCES & CREDITS :

   NOAA